createdAt,value
2023-07-03T00:00:20.228Z,16.53
2023-07-03T00:03:14.834Z,16.53
2023-07-03T00:05:46.513Z,16.55
2023-07-03T00:08:17.097Z,16.52
2023-07-03T00:10:45.012Z,16.52
2023-07-03T00:13:13.046Z,16.47
2023-07-03T00:15:41.150Z,16.47
2023-07-03T00:18:09.131Z,16.45
2023-07-03T00:20:37.335Z,16.46
2023-07-03T00:23:05.821Z,16.50
2023-07-03T00:25:33.783Z,16.51
2023-07-03T00:28:01.690Z,16.53
2023-07-03T00:30:29.640Z,16.55
2023-07-03T00:32:57.635Z,16.60
2023-07-03T00:35:25.712Z,16.68
2023-07-03T00:37:53.645Z,16.74
2023-07-03T00:40:21.597Z,16.78
2023-07-03T00:42:52.018Z,16.79
2023-07-03T00:45:21.640Z,16.79
2023-07-03T00:47:50.625Z,16.76
2023-07-03T00:50:19.250Z,16.76
2023-07-03T00:52:53.871Z,16.79
2023-07-03T00:55:24.044Z,16.78
2023-07-03T00:57:52.533Z,16.76
2023-07-03T01:00:22.535Z,16.75
2023-07-03T01:03:11.819Z,16.69
2023-07-03T01:05:46.688Z,16.64
2023-07-03T01:08:15.036Z,16.65
2023-07-03T01:10:44.788Z,16.63
2023-07-03T01:13:17.864Z,16.65
2023-07-03T01:15:47.846Z,16.66
2023-07-03T01:18:19.374Z,16.69
2023-07-03T01:21:07.794Z,16.71
2023-07-03T01:23:50.580Z,16.76
2023-07-03T01:26:20.366Z,16.82
2023-07-03T01:28:54.863Z,16.82
2023-07-03T01:31:24.643Z,16.81
2023-07-03T01:33:55.845Z,16.80
2023-07-03T01:36:24.790Z,16.77
2023-07-03T01:38:54.696Z,16.76
2023-07-03T01:41:23.439Z,16.75
2023-07-03T01:43:52.022Z,16.71
2023-07-03T01:46:20.375Z,16.63
2023-07-03T01:48:48.393Z,16.58
2023-07-03T01:51:26.057Z,16.52
2023-07-03T01:54:02.792Z,16.43
2023-07-03T01:56:36.220Z,16.32
2023-07-03T01:59:11.249Z,16.27
2023-07-03T02:01:56.708Z,16.19
2023-07-03T02:04:33.962Z,16.11
2023-07-03T02:07:04.822Z,16.07
2023-07-03T02:09:33.640Z,16.05
2023-07-03T02:12:07.158Z,15.99
2023-07-03T02:14:36.373Z,15.95
2023-07-03T02:17:07.544Z,15.91
2023-07-03T02:19:36.285Z,15.90
2023-07-03T02:22:04.716Z,15.90
2023-07-03T02:24:33.576Z,15.86
2023-07-03T02:27:01.620Z,15.80
2023-07-03T02:29:32.255Z,15.79
2023-07-03T02:32:00.241Z,15.78
2023-07-03T02:34:29.497Z,15.76
2023-07-03T02:37:00.172Z,15.72
2023-07-03T02:39:30.579Z,15.70
2023-07-03T02:41:58.713Z,15.67
2023-07-03T02:44:27.272Z,15.65
2023-07-03T02:46:55.306Z,15.61
2023-07-03T02:49:29.008Z,15.57
2023-07-03T02:51:58.136Z,15.56
2023-07-03T02:54:26.171Z,15.55
2023-07-03T02:56:54.266Z,15.48
2023-07-03T02:59:23.041Z,15.46
2023-07-03T03:01:51.603Z,15.48
2023-07-03T03:04:20.351Z,15.46
2023-07-03T03:06:48.857Z,15.43
2023-07-03T03:09:16.778Z,15.39
2023-07-03T03:11:44.761Z,15.37
2023-07-03T03:14:14.408Z,15.35
2023-07-03T03:16:42.428Z,15.33
2023-07-03T03:19:10.605Z,15.29
2023-07-03T03:21:39.557Z,15.31
2023-07-03T03:24:07.940Z,15.30
2023-07-03T03:26:35.861Z,15.30
2023-07-03T03:29:03.893Z,15.28
2023-07-03T03:31:32.182Z,15.24
2023-07-03T03:34:03.531Z,15.20
2023-07-03T03:36:34.348Z,15.15
2023-07-03T03:39:02.548Z,15.07
2023-07-03T03:41:31.474Z,14.99
2023-07-03T03:43:59.598Z,14.95
2023-07-03T03:46:27.540Z,14.97
2023-07-03T03:48:56.735Z,14.99
2023-07-03T03:51:25.606Z,14.98
2023-07-03T03:53:54.431Z,14.96
2023-07-03T03:56:22.942Z,14.96
2023-07-03T03:58:51.581Z,14.96
2023-07-03T04:01:19.819Z,14.93
2023-07-03T04:03:47.894Z,14.94
2023-07-03T04:06:20.265Z,15.00
2023-07-03T04:08:48.848Z,15.11
2023-07-03T04:11:16.798Z,15.23
2023-07-03T04:13:44.824Z,15.36
2023-07-03T04:16:13.670Z,15.48
2023-07-03T04:18:41.979Z,15.55
2023-07-03T04:21:10.153Z,15.56
2023-07-03T04:23:38.624Z,15.55
2023-07-03T04:26:06.860Z,15.58
2023-07-03T04:28:35.301Z,15.62
2023-07-03T04:31:03.909Z,15.64
2023-07-03T04:33:31.942Z,15.64
2023-07-03T04:36:00.028Z,15.66
2023-07-03T04:38:28.179Z,15.66
2023-07-03T04:40:58.867Z,15.68
2023-07-03T04:43:26.818Z,15.71
2023-07-03T04:45:57.419Z,15.74
2023-07-03T04:48:25.892Z,15.78
2023-07-03T04:50:53.830Z,15.84
2023-07-03T04:53:22.655Z,15.92
2023-07-03T04:55:52.252Z,16.01
2023-07-03T05:08:28.550Z,16.46
2023-07-03T05:10:56.549Z,16.57
2023-07-03T05:13:24.524Z,16.73
2023-07-03T05:15:52.818Z,16.90
2023-07-03T05:18:21.556Z,17.10
2023-07-03T05:20:50.437Z,17.30
2023-07-03T05:23:18.655Z,17.50
2023-07-03T05:25:47.731Z,17.71
2023-07-03T05:28:15.804Z,17.94
2023-07-03T05:30:43.980Z,18.15
2023-07-03T05:33:12.209Z,18.37
2023-07-03T05:35:49.722Z,18.59
2023-07-03T05:38:20.225Z,18.83
2023-07-03T05:40:51.364Z,19.06
2023-07-03T05:43:19.978Z,19.26
2023-07-03T05:45:49.868Z,19.41
2023-07-03T05:48:18.862Z,19.61
2023-07-03T05:50:46.921Z,19.83
2023-07-03T05:53:15.016Z,20.01
2023-07-03T05:55:44.762Z,20.22
2023-07-03T05:58:12.747Z,20.41
2023-07-03T06:00:41.427Z,20.60
2023-07-03T06:03:12.545Z,20.76
2023-07-03T06:05:40.816Z,20.93
2023-07-03T06:08:08.963Z,21.03
2023-07-03T06:10:36.962Z,21.17
2023-07-03T06:13:05.522Z,21.29
2023-07-03T06:15:35.810Z,21.42
2023-07-03T06:18:04.857Z,21.52
2023-07-03T06:20:34.555Z,21.69
2023-07-03T06:23:02.605Z,21.81
2023-07-03T06:25:30.711Z,21.87
2023-07-03T06:27:58.611Z,21.96
2023-07-03T06:30:26.781Z,22.10
2023-07-03T06:32:55.900Z,22.24
2023-07-03T06:35:24.185Z,22.40
2023-07-03T06:37:57.264Z,22.50
2023-07-03T06:40:26.748Z,22.54
2023-07-03T06:42:54.899Z,22.67
2023-07-03T06:45:23.137Z,22.81
2023-07-03T06:47:51.493Z,22.89
2023-07-03T06:50:19.476Z,23.00
2023-07-03T06:52:48.489Z,23.06
2023-07-03T06:55:16.567Z,23.07
2023-07-03T06:57:46.753Z,23.21
2023-07-03T07:00:15.097Z,23.39
2023-07-03T07:02:43.130Z,23.46
2023-07-03T07:05:11.402Z,23.47
2023-07-03T07:07:39.749Z,23.50
2023-07-03T07:10:10.913Z,23.68
2023-07-03T07:12:39.060Z,23.80
2023-07-03T07:15:08.260Z,23.85
2023-07-03T07:20:10.871Z,24.12
2023-07-03T07:22:41.023Z,24.25
2023-07-03T07:25:09.505Z,24.32
2023-07-03T07:27:38.695Z,24.39
2023-07-03T07:30:07.475Z,24.28
2023-07-03T07:32:35.670Z,24.32
2023-07-03T07:35:03.860Z,24.24
2023-07-03T07:37:31.913Z,24.20
2023-07-03T07:39:59.827Z,24.05
2023-07-03T07:42:30.436Z,24.13
2023-07-03T07:44:58.615Z,24.26
2023-07-03T07:47:26.569Z,24.37
2023-07-03T07:49:54.529Z,24.39
2023-07-03T07:52:25.076Z,24.40
2023-07-03T07:54:57.731Z,24.41
2023-07-03T07:57:27.149Z,24.48
2023-07-03T07:59:55.146Z,24.56
2023-07-03T08:02:23.300Z,24.62
2023-07-03T08:04:53.396Z,24.72
2023-07-03T08:07:24.255Z,24.78
2023-07-03T08:09:52.182Z,24.93
2023-07-03T08:12:20.352Z,25.07
2023-07-03T08:14:48.365Z,25.27
2023-07-03T08:17:16.673Z,25.33
2023-07-03T08:19:44.578Z,25.36
2023-07-03T08:22:12.513Z,25.20
2023-07-03T08:24:41.347Z,25.14
2023-07-03T08:27:10.202Z,25.02
2023-07-03T08:29:38.122Z,24.79
2023-07-03T08:32:10.740Z,24.66
2023-07-03T08:34:38.803Z,24.41
2023-07-03T08:37:08.669Z,24.18
2023-07-03T08:39:40.234Z,23.84
2023-07-03T08:42:23.112Z,23.58
2023-07-03T08:44:52.232Z,23.57
2023-07-03T08:47:27.441Z,23.71
2023-07-03T08:49:56.670Z,23.78
2023-07-03T08:52:45.986Z,23.65
2023-07-03T08:55:19.701Z,23.67
2023-07-03T08:57:47.734Z,23.65
2023-07-03T09:00:18.976Z,23.80
2023-07-03T09:03:10.460Z,23.98
2023-07-03T09:06:05.799Z,24.20
2023-07-03T09:08:47.073Z,24.42
2023-07-03T09:11:18.334Z,24.58
2023-07-03T09:13:51.335Z,24.48
2023-07-03T09:16:24.897Z,24.47
2023-07-03T09:18:59.105Z,24.38
2023-07-03T09:21:29.526Z,24.34
2023-07-03T09:24:04.453Z,24.41
2023-07-03T09:26:41.243Z,24.42
2023-07-03T09:29:11.663Z,24.50
2023-07-03T09:31:40.774Z,24.63
2023-07-03T09:34:09.835Z,24.71
2023-07-03T09:36:41.580Z,24.71
2023-07-03T09:39:13.100Z,24.73
2023-07-03T09:41:42.038Z,24.55
2023-07-03T09:44:14.902Z,24.50
2023-07-03T09:46:43.315Z,24.54
2023-07-03T09:49:22.617Z,24.61
2023-07-03T09:51:52.800Z,24.52
2023-07-03T09:54:23.435Z,24.44
2023-07-03T09:56:51.414Z,24.12
2023-07-03T09:59:20.849Z,23.83
2023-07-03T10:07:08.196Z,23.58
2023-07-03T10:12:24.008Z,23.92
2023-07-03T10:15:14.753Z,24.11
2023-07-03T10:17:48.667Z,24.30
2023-07-03T10:20:26.367Z,24.17
2023-07-03T10:22:59.655Z,23.95
2023-07-03T10:25:42.712Z,23.89
2023-07-03T10:28:19.136Z,23.87
2023-07-03T10:30:53.666Z,23.78
2023-07-03T10:33:28.464Z,23.73
2023-07-03T10:35:57.167Z,23.72
2023-07-03T10:38:38.135Z,23.86
2023-07-03T10:41:16.022Z,23.91
2023-07-03T10:43:52.619Z,23.89
2023-07-03T10:46:47.826Z,23.92
2023-07-03T10:49:25.266Z,23.98
2023-07-03T10:52:14.858Z,24.03
2023-07-03T10:54:53.028Z,23.99
2023-07-03T10:57:34.589Z,24.07
2023-07-03T11:00:13.544Z,24.21
2023-07-03T11:03:00.300Z,24.33
2023-07-03T11:05:43.108Z,24.29
2023-07-03T11:08:37.401Z,24.24
2023-07-03T11:11:18.867Z,24.25
2023-07-03T11:14:03.580Z,24.30
2023-07-03T11:16:59.236Z,24.33
2023-07-03T11:19:53.222Z,24.30
2023-07-03T11:25:17.920Z,24.38
2023-07-03T11:30:26.955Z,24.16
2023-07-03T11:32:58.530Z,23.97
2023-07-03T11:41:00.157Z,24.00
2023-07-03T11:43:33.375Z,23.85
2023-07-03T11:46:05.565Z,23.55
2023-07-03T11:48:43.655Z,23.37
2023-07-03T11:51:21.686Z,23.42
2023-07-03T11:53:54.756Z,23.55
2023-07-03T11:56:31.990Z,23.76
2023-07-03T11:59:30.468Z,23.93
2023-07-03T12:02:20.086Z,23.99
2023-07-03T12:04:53.986Z,23.96
2023-07-03T12:08:23.471Z,23.82
2023-07-03T12:10:50.044Z,23.61
2023-07-03T12:13:42.131Z,23.59
2023-07-03T12:16:30.880Z,23.73
2023-07-03T12:19:07.021Z,23.90
2023-07-03T12:21:37.644Z,23.97
2023-07-03T12:24:19.965Z,23.97
2023-07-03T12:27:02.364Z,23.79
2023-07-03T12:29:31.507Z,23.73
2023-07-03T12:32:08.321Z,23.70
2023-07-03T12:34:40.130Z,23.60
2023-07-03T12:37:15.858Z,23.49
2023-07-03T12:39:43.851Z,23.49
2023-07-03T12:42:14.712Z,23.60
2023-07-03T12:44:41.497Z,23.65
2023-07-03T12:47:10.900Z,23.72
2023-07-03T12:49:54.538Z,23.83
2023-07-03T12:52:25.948Z,23.80
2023-07-03T12:55:01.673Z,23.67
2023-07-03T12:57:38.276Z,23.53
2023-07-03T13:00:07.045Z,23.41
2023-07-03T13:02:36.038Z,23.33
2023-07-03T13:05:07.708Z,23.43
2023-07-03T13:07:35.280Z,23.62
2023-07-03T13:10:12.318Z,23.75
2023-07-03T13:12:39.295Z,23.76
2023-07-03T13:15:31.617Z,23.75
2023-07-03T13:18:08.124Z,23.86
2023-07-03T13:20:35.449Z,23.95
2023-07-03T13:23:05.846Z,23.91
2023-07-03T13:25:37.080Z,23.91
2023-07-03T13:37:25.518Z,23.70
2023-07-03T13:40:01.024Z,23.65
2023-07-03T13:42:31.446Z,23.70
2023-07-03T13:44:59.590Z,23.76
2023-07-03T13:47:29.346Z,23.81
2023-07-03T13:49:58.081Z,23.83
2023-07-03T13:52:26.069Z,23.84
2023-07-03T13:54:54.069Z,23.80
2023-07-03T13:57:22.127Z,23.87
2023-07-03T13:59:50.069Z,23.90
2023-07-03T14:02:18.129Z,23.81
2023-07-03T14:04:46.278Z,23.75
2023-07-03T14:07:14.246Z,23.73
2023-07-03T14:09:42.288Z,23.74
2023-07-03T14:12:10.240Z,23.80
2023-07-03T14:14:38.221Z,23.87
2023-07-03T14:17:06.375Z,23.91
2023-07-03T14:19:35.189Z,23.95
2023-07-03T14:22:03.279Z,24.02
2023-07-03T14:24:31.459Z,24.06
2023-07-03T14:27:01.198Z,24.07
2023-07-03T14:29:29.417Z,24.08
2023-07-03T14:31:58.246Z,24.05
2023-07-03T14:34:26.921Z,23.98
2023-07-03T14:36:54.902Z,23.95
2023-07-03T14:39:22.896Z,23.97
2023-07-03T14:41:50.996Z,23.93
2023-07-03T14:44:19.413Z,23.92
2023-07-03T14:46:47.465Z,23.90
2023-07-03T14:49:15.781Z,23.89
2023-07-03T14:51:43.816Z,23.88
2023-07-03T14:54:11.980Z,23.88
2023-07-03T14:56:40.573Z,23.82
2023-07-03T14:59:08.595Z,23.75
2023-07-03T15:01:44.523Z,23.65
2023-07-03T15:04:13.382Z,23.60
2023-07-03T15:06:50.866Z,23.57
2023-07-03T15:09:18.900Z,23.54
2023-07-03T15:11:50.537Z,23.54
2023-07-03T15:14:19.210Z,23.54
2023-07-03T15:16:47.158Z,23.50
2023-07-03T15:19:15.209Z,23.42
2023-07-03T15:21:43.156Z,23.33
2023-07-03T15:24:11.180Z,23.21
2023-07-03T15:26:42.066Z,23.12
2023-07-03T15:29:12.730Z,23.06
2023-07-03T15:31:42.407Z,23.05
2023-07-03T15:34:10.628Z,23.15
2023-07-03T15:36:38.644Z,23.26
2023-07-03T15:39:07.581Z,23.35
2023-07-03T15:41:35.692Z,23.41
2023-07-03T15:44:03.987Z,23.44
2023-07-03T15:46:33.820Z,23.42
2023-07-03T15:49:01.833Z,23.36
2023-07-03T15:51:32.807Z,23.29
2023-07-03T15:54:01.639Z,23.25
2023-07-03T15:56:31.887Z,23.26
2023-07-03T15:59:04.498Z,23.22
2023-07-03T16:01:32.641Z,23.15
2023-07-03T16:04:01.904Z,23.04
2023-07-03T16:06:34.688Z,23.00
2023-07-03T16:09:03.539Z,22.99
2023-07-03T16:11:38.223Z,22.97
2023-07-03T16:14:06.307Z,22.97
2023-07-03T16:16:34.296Z,22.96
2023-07-03T16:19:04.524Z,22.94
2023-07-03T16:21:34.721Z,22.92
2023-07-03T16:24:04.735Z,22.95
2023-07-03T16:26:32.919Z,22.93
2023-07-03T16:29:01.073Z,22.92
2023-07-03T16:31:30.870Z,22.91
2023-07-03T16:34:01.052Z,22.90
2023-07-03T16:36:31.514Z,22.90
2023-07-03T16:39:03.788Z,22.93
2023-07-03T16:41:35.926Z,22.89
2023-07-03T16:44:03.942Z,22.88
2023-07-03T16:46:32.028Z,22.86
2023-07-03T16:49:00.784Z,22.83
2023-07-03T16:51:29.177Z,22.78
2023-07-03T16:53:57.690Z,22.76
2023-07-03T16:56:30.267Z,22.74
2023-07-03T16:58:59.141Z,22.70
2023-07-03T17:01:29.518Z,22.66
2023-07-03T17:03:58.234Z,22.66
2023-07-03T17:06:32.884Z,22.64
2023-07-03T17:09:02.494Z,22.63
2023-07-03T17:11:31.504Z,22.59
2023-07-03T17:14:00.888Z,22.56
2023-07-03T17:16:30.621Z,22.54
2023-07-03T17:18:58.778Z,22.50
2023-07-03T17:21:26.865Z,22.45
2023-07-03T17:24:03.725Z,22.40
2023-07-03T17:26:35.243Z,22.33
2023-07-03T17:29:04.926Z,22.28
2023-07-03T17:31:33.711Z,22.24
2023-07-03T17:34:01.881Z,22.19
2023-07-03T17:36:30.129Z,22.16
2023-07-03T17:38:58.197Z,22.13
2023-07-03T17:41:26.451Z,22.11
2023-07-03T17:43:54.368Z,22.10
2023-07-03T17:46:22.440Z,22.07
2023-07-03T17:48:51.106Z,22.00
2023-07-03T17:51:19.116Z,21.93
2023-07-03T17:53:48.515Z,21.89
2023-07-03T17:56:16.514Z,21.82
2023-07-03T17:58:44.747Z,21.80
2023-07-03T18:01:16.760Z,21.80
2023-07-03T18:03:47.834Z,21.78
2023-07-03T18:06:15.983Z,21.76
2023-07-03T18:08:43.983Z,21.72
2023-07-03T18:11:13.925Z,21.69
2023-07-03T18:13:43.682Z,21.64
2023-07-03T18:16:11.723Z,21.58
2023-07-03T18:18:39.981Z,21.50
2023-07-03T18:21:08.093Z,21.44
2023-07-03T18:23:36.136Z,21.33
2023-07-03T18:26:04.266Z,21.27
2023-07-03T18:28:32.419Z,21.19
2023-07-03T18:31:03.221Z,21.05
2023-07-03T18:33:33.298Z,20.94
2023-07-03T18:36:03.823Z,20.83
2023-07-03T18:38:32.334Z,20.74
2023-07-03T18:41:04.733Z,20.65
2023-07-03T18:43:32.787Z,20.58
2023-07-03T18:46:00.856Z,20.45
2023-07-03T18:48:29.390Z,20.36
2023-07-03T18:50:57.342Z,20.27
2023-07-03T18:53:25.797Z,20.22
2023-07-03T18:55:54.042Z,20.18
2023-07-03T18:58:22.281Z,20.15
2023-07-03T19:00:50.515Z,20.07
2023-07-03T19:03:20.377Z,20.02
2023-07-03T19:05:50.263Z,19.96
2023-07-03T19:08:19.241Z,19.91
2023-07-03T19:10:47.897Z,19.86
2023-07-03T19:13:15.965Z,19.79
2023-07-03T19:15:44.811Z,19.72
2023-07-03T19:18:15.070Z,19.66
2023-07-03T19:20:43.214Z,19.58
2023-07-03T19:23:14.782Z,19.52
2023-07-03T19:25:43.256Z,19.50
2023-07-03T19:28:11.347Z,19.50
2023-07-03T19:30:39.293Z,19.46
2023-07-03T19:33:07.439Z,19.42
2023-07-03T19:35:37.725Z,19.42
2023-07-03T19:38:09.338Z,19.42
2023-07-03T19:40:39.017Z,19.43
2023-07-03T19:43:07.767Z,19.42
2023-07-03T19:45:37.054Z,19.40
2023-07-03T19:48:06.900Z,19.40
2023-07-03T19:50:38.130Z,19.43
2023-07-03T19:53:08.563Z,19.47
2023-07-03T19:55:37.861Z,19.50
2023-07-03T19:58:06.159Z,19.52
2023-07-03T20:00:34.370Z,19.52
2023-07-03T20:03:03.960Z,19.51
2023-07-03T20:05:36.290Z,19.47
2023-07-03T20:08:04.433Z,19.47
2023-07-03T20:10:32.371Z,19.39
2023-07-03T20:13:00.718Z,19.34
2023-07-03T20:15:28.687Z,19.37
2023-07-03T20:17:57.235Z,19.38
2023-07-03T20:20:25.790Z,19.37
2023-07-03T20:22:53.827Z,19.36
2023-07-03T20:25:21.883Z,19.41
2023-07-03T20:27:51.376Z,19.48
2023-07-03T20:30:19.536Z,19.54
2023-07-03T20:32:49.166Z,19.58
2023-07-03T20:35:17.500Z,19.61
2023-07-03T20:37:45.438Z,19.63
2023-07-03T20:40:14.400Z,19.64
2023-07-03T20:42:42.390Z,19.58
2023-07-03T20:45:10.571Z,19.60
2023-07-03T20:47:38.663Z,19.58
2023-07-03T20:50:07.612Z,19.60
2023-07-03T20:52:41.053Z,19.63
2023-07-03T20:55:36.694Z,19.65
2023-07-03T20:58:04.831Z,19.68
2023-07-03T21:00:32.799Z,19.66
2023-07-03T21:03:00.951Z,19.63
2023-07-03T21:05:29.339Z,19.60
2023-07-03T21:07:57.828Z,19.58
2023-07-03T21:10:25.905Z,19.60
2023-07-03T21:12:54.376Z,19.61
2023-07-03T21:15:23.129Z,19.65
2023-07-03T21:18:00.947Z,19.68
2023-07-03T21:20:43.649Z,19.71
2023-07-03T21:23:11.805Z,19.71
2023-07-03T21:25:39.806Z,19.71
2023-07-03T21:28:07.858Z,19.71
2023-07-03T21:30:41.999Z,19.70
2023-07-03T21:33:11.727Z,19.68
2023-07-03T21:35:40.065Z,19.65
2023-07-03T21:38:07.990Z,19.65
2023-07-03T21:40:35.933Z,19.61
2023-07-03T21:43:03.918Z,19.62
2023-07-03T21:45:34.149Z,19.65
2023-07-03T21:48:02.251Z,19.61
2023-07-03T21:50:30.382Z,19.60
2023-07-03T21:52:58.457Z,19.64
2023-07-03T21:55:26.361Z,19.64
2023-07-03T21:57:54.423Z,19.63
2023-07-03T22:00:22.362Z,19.59
2023-07-03T22:02:50.657Z,19.56
2023-07-03T22:05:18.850Z,19.55
2023-07-03T22:07:49.096Z,19.47
2023-07-03T22:10:17.379Z,19.39
2023-07-03T22:12:45.359Z,19.33
2023-07-03T22:15:13.372Z,19.32
2023-07-03T22:17:41.405Z,19.28
2023-07-03T22:20:10.128Z,19.25
2023-07-03T22:22:38.679Z,19.30
2023-07-03T22:25:08.185Z,19.35
2023-07-03T22:27:36.278Z,19.37
2023-07-03T22:30:04.639Z,19.39
2023-07-03T22:32:32.655Z,19.41
2023-07-03T22:35:00.726Z,19.41
2023-07-03T22:37:28.929Z,19.39
2023-07-03T22:39:57.007Z,19.42
2023-07-03T22:42:25.044Z,19.44
2023-07-03T22:44:53.042Z,19.44
2023-07-03T22:47:21.130Z,19.43
2023-07-03T22:49:49.133Z,19.41
2023-07-03T22:52:17.075Z,19.39
2023-07-03T22:54:48.186Z,19.33
2023-07-03T22:57:16.121Z,19.26
2023-07-03T22:59:44.333Z,19.20
2023-07-03T23:02:14.393Z,19.21
2023-07-03T23:04:42.742Z,19.20
2023-07-03T23:07:10.699Z,19.19
2023-07-03T23:09:40.210Z,19.20
2023-07-03T23:12:09.823Z,19.23
2023-07-03T23:14:37.839Z,19.25
2023-07-03T23:17:06.279Z,19.29
2023-07-03T23:19:34.940Z,19.33
2023-07-03T23:22:03.096Z,19.32
2023-07-03T23:24:31.034Z,19.26
2023-07-03T23:26:59.200Z,19.20
2023-07-03T23:29:27.234Z,19.10
2023-07-03T23:31:55.641Z,19.05
2023-07-03T23:34:23.942Z,18.99
2023-07-03T23:36:52.179Z,18.93
2023-07-03T23:39:21.206Z,18.95
2023-07-03T23:41:49.589Z,18.99
2023-07-03T23:44:17.493Z,19.04
2023-07-03T23:46:45.546Z,19.07
2023-07-03T23:49:13.543Z,19.08
2023-07-03T23:51:41.830Z,19.11
2023-07-03T23:54:10.863Z,19.12
2023-07-03T23:56:39.480Z,19.14
2023-07-03T23:59:08.076Z,19.17
